createdAt,value
2023-02-16T00:01:20.938Z,80.72
2023-02-16T00:03:49.324Z,70.97
2023-02-16T00:06:17.644Z,76.65
2023-02-16T00:08:46.533Z,79.80
2023-02-16T00:11:34.899Z,74.63
2023-02-16T00:14:05.221Z,74.15
2023-02-16T00:16:33.524Z,77.45
2023-02-16T00:19:01.937Z,78.75
2023-02-16T00:21:30.311Z,75.95
2023-02-16T00:23:58.554Z,71.63
2023-02-16T00:26:27.758Z,72.30
2023-02-16T00:28:58.503Z,81.32
2023-02-16T00:31:29.104Z,68.72
2023-02-16T00:33:57.554Z,71.20
2023-02-16T00:36:26.444Z,73.40
2023-02-16T00:38:54.772Z,68.78
2023-02-16T00:41:41.978Z,68.97
2023-02-16T00:44:14.641Z,66.72
2023-02-16T00:46:44.374Z,67.65
2023-02-16T00:49:15.027Z,61.45
2023-02-16T00:51:43.383Z,57.78
2023-02-16T00:54:12.276Z,66.55
2023-02-16T00:56:40.704Z,60.67
2023-02-16T00:59:10.832Z,61.67
2023-02-16T01:01:39.327Z,59.40
2023-02-16T01:04:09.623Z,63.28
2023-02-16T01:06:55.367Z,67.30
2023-02-16T01:09:41.217Z,65.43
2023-02-16T01:12:11.847Z,59.85
2023-02-16T01:14:40.234Z,64.00
2023-02-16T01:17:08.470Z,69.05
2023-02-16T01:19:38.153Z,64.15
2023-02-16T01:22:07.011Z,63.13
2023-02-16T01:24:35.288Z,59.00
2023-02-16T01:27:04.084Z,68.55
2023-02-16T01:29:32.391Z,65.20
2023-02-16T01:32:00.795Z,70.65
2023-02-16T01:34:29.119Z,72.68
2023-02-16T01:37:01.205Z,72.90
2023-02-16T01:39:29.443Z,67.55
2023-02-16T01:42:01.708Z,69.25
2023-02-16T01:44:33.292Z,70.18
2023-02-16T01:47:05.040Z,70.65
2023-02-16T01:49:33.436Z,68.15
2023-02-16T01:52:06.785Z,69.65
2023-02-16T01:54:37.539Z,71.97
2023-02-16T01:57:11.696Z,67.85
2023-02-16T01:59:43.135Z,65.63
2023-02-16T02:02:16.523Z,72.53
2023-02-16T02:05:04.354Z,64.45
2023-02-16T02:07:37.448Z,73.85
2023-02-16T02:10:09.296Z,71.75
2023-02-16T02:12:42.306Z,71.40
2023-02-16T02:15:10.998Z,68.07
2023-02-16T02:17:39.279Z,76.88
2023-02-16T02:20:10.665Z,72.13
2023-02-16T02:23:15.868Z,76.47
2023-02-16T02:25:57.813Z,79.72
2023-02-16T02:28:29.291Z,74.35
2023-02-16T02:31:00.362Z,68.88
2023-02-16T02:33:34.819Z,58.17
2023-02-16T02:36:10.497Z,66.68
2023-02-16T02:38:42.108Z,60.70
2023-02-16T02:41:13.972Z,69.25
2023-02-16T02:43:45.094Z,66.25
2023-02-16T02:46:14.856Z,55.17
2023-02-16T02:48:43.156Z,63.85
2023-02-16T02:51:33.544Z,58.92
2023-02-16T02:54:30.056Z,62.85
2023-02-16T02:57:23.205Z,67.22
2023-02-16T03:00:15.928Z,60.38
2023-02-16T03:02:45.649Z,63.95
2023-02-16T03:05:14.940Z,57.72
2023-02-16T03:07:47.603Z,59.08
2023-02-16T03:10:34.515Z,57.83
2023-02-16T03:13:03.775Z,55.70
2023-02-16T03:15:35.236Z,56.67
2023-02-16T03:18:22.361Z,58.63
2023-02-16T03:21:08.398Z,58.40
2023-02-16T03:23:55.606Z,56.25
2023-02-16T03:26:42.108Z,63.47
2023-02-16T03:29:17.306Z,63.40
2023-02-16T03:31:48.008Z,59.67
2023-02-16T03:34:16.776Z,54.88
2023-02-16T03:36:47.652Z,63.40
2023-02-16T03:39:16.083Z,65.40
2023-02-16T03:41:47.392Z,67.15
2023-02-16T03:44:15.823Z,61.78
2023-02-16T03:46:44.223Z,65.00
2023-02-16T03:49:13.878Z,66.07
2023-02-16T03:51:42.195Z,59.35
2023-02-16T03:54:10.534Z,65.53
2023-02-16T03:56:38.868Z,68.57
2023-02-16T03:59:07.182Z,59.50
2023-02-16T04:01:35.480Z,59.17
2023-02-16T04:04:03.915Z,55.50
2023-02-16T04:06:33.611Z,58.65
2023-02-16T04:09:02.309Z,56.67
2023-02-16T04:11:48.432Z,62.13
2023-02-16T04:14:16.827Z,52.92
2023-02-16T04:16:46.011Z,54.10
2023-02-16T04:19:15.154Z,55.15
2023-02-16T04:21:44.857Z,54.30
2023-02-16T04:24:13.151Z,55.85
2023-02-16T04:26:41.437Z,55.05
2023-02-16T04:29:09.722Z,55.50
2023-02-16T04:31:38.226Z,55.42
2023-02-16T04:34:06.562Z,54.33
2023-02-16T04:36:38.397Z,55.35
2023-02-16T04:39:08.046Z,53.03
2023-02-16T04:41:36.403Z,62.70
2023-02-16T04:44:04.649Z,50.50
2023-02-16T04:46:32.976Z,51.67
2023-02-16T04:49:01.452Z,54.10
2023-02-16T04:51:29.980Z,52.80
2023-02-16T04:53:58.320Z,53.13
2023-02-16T04:56:28.599Z,55.42
2023-02-16T04:58:57.717Z,60.72
2023-02-16T05:01:27.062Z,53.90
2023-02-16T05:03:55.867Z,59.10
2023-02-16T05:06:24.543Z,51.05
2023-02-16T05:08:52.915Z,49.65
2023-02-16T05:11:38.914Z,51.17
2023-02-16T05:14:26.307Z,47.63
2023-02-16T05:16:54.630Z,48.90
2023-02-16T05:19:22.900Z,50.60
2023-02-16T05:21:51.309Z,50.55
2023-02-16T05:24:19.584Z,49.33
2023-02-16T05:26:47.933Z,44.67
2023-02-16T05:29:17.519Z,48.30
2023-02-16T05:31:46.122Z,48.40
2023-02-16T05:34:14.631Z,47.33
2023-02-16T05:36:42.964Z,55.33
2023-02-16T05:39:11.342Z,47.25
2023-02-16T05:41:39.732Z,46.25
2023-02-16T05:44:08.765Z,45.42
2023-02-16T05:46:39.792Z,44.70
2023-02-16T05:49:08.825Z,50.70
2023-02-16T05:51:37.613Z,50.10
2023-02-16T05:54:06.412Z,42.95
2023-02-16T05:56:34.961Z,48.80
2023-02-16T05:59:03.255Z,45.22
2023-02-16T06:01:31.575Z,44.88
2023-02-16T06:04:01.321Z,50.05
2023-02-16T06:06:29.742Z,43.45
2023-02-16T06:08:58.041Z,42.70
2023-02-16T06:14:56.398Z,50.05
2023-02-16T06:17:24.955Z,49.05
2023-02-16T06:19:54.613Z,45.25
2023-02-16T06:22:23.205Z,48.30
2023-02-16T06:24:51.484Z,40.45
2023-02-16T06:27:19.830Z,51.72
2023-02-16T06:29:48.100Z,47.33
2023-02-16T06:32:17.046Z,46.53
2023-02-16T06:34:45.419Z,49.60
2023-02-16T06:37:15.002Z,46.30
2023-02-16T06:39:43.300Z,49.88
2023-02-16T06:42:11.617Z,38.70
2023-02-16T06:44:44.196Z,43.80
2023-02-16T06:47:12.647Z,48.25
2023-02-16T06:49:40.942Z,41.13
2023-02-16T06:52:09.982Z,42.40
2023-02-16T06:54:39.671Z,40.70
2023-02-16T06:57:07.964Z,48.50
2023-02-16T06:59:36.642Z,39.75
2023-02-16T07:02:04.973Z,48.83
2023-02-16T07:04:33.233Z,44.30
2023-02-16T07:07:01.563Z,47.47
2023-02-16T07:09:30.024Z,36.85
2023-02-16T07:11:59.651Z,38.67
2023-02-16T07:14:28.049Z,35.83
2023-02-16T07:16:58.956Z,41.20
2023-02-16T07:19:27.367Z,38.00
2023-02-16T07:21:55.666Z,39.45
2023-02-16T07:24:24.300Z,38.08
2023-02-16T07:26:52.594Z,36.80
2023-02-16T07:29:22.269Z,36.95
2023-02-16T07:31:53.431Z,39.90
2023-02-16T07:34:22.193Z,33.25
2023-02-16T07:36:50.655Z,33.30
2023-02-16T07:39:19.505Z,34.75
2023-02-16T07:41:47.976Z,34.72
2023-02-16T07:44:19.521Z,38.13
2023-02-16T07:46:49.349Z,35.00
2023-02-16T07:49:17.724Z,34.13
2023-02-16T07:51:46.104Z,35.97
2023-02-16T07:54:14.435Z,33.25
2023-02-16T07:56:42.737Z,33.45
2023-02-16T07:59:11.733Z,40.22
2023-02-16T08:01:41.126Z,37.88
2023-02-16T08:04:10.863Z,38.00
2023-02-16T08:06:39.288Z,36.33
2023-02-16T08:09:07.839Z,32.63
2023-02-16T08:11:36.306Z,35.95
2023-02-16T08:14:04.675Z,40.67
2023-02-16T08:16:33.098Z,36.90
2023-02-16T08:19:03.555Z,36.08
2023-02-16T08:21:34.709Z,33.13
2023-02-16T08:24:03.843Z,34.15
2023-02-16T08:26:36.711Z,40.40
2023-02-16T08:29:05.568Z,37.22
2023-02-16T08:31:36.572Z,33.97
2023-02-16T08:34:05.789Z,38.60
2023-02-16T08:36:36.482Z,41.30
2023-02-16T08:39:10.307Z,42.17
2023-02-16T08:41:41.378Z,46.83
2023-02-16T08:44:10.156Z,39.05
2023-02-16T08:46:39.825Z,38.08
2023-02-16T08:49:21.522Z,50.50
2023-02-16T08:51:54.625Z,41.15
2023-02-16T08:54:25.407Z,45.13
2023-02-16T08:56:54.297Z,48.15
2023-02-16T08:59:23.478Z,78.35
2023-02-16T09:01:52.273Z,48.10
2023-02-16T09:04:21.520Z,42.60
2023-02-16T09:06:50.286Z,41.50
2023-02-16T09:09:20.174Z,40.25
2023-02-16T09:11:49.159Z,57.10
2023-02-16T09:14:18.985Z,77.80
2023-02-16T09:16:48.079Z,58.50
2023-02-16T09:19:21.285Z,45.35
2023-02-16T09:21:54.380Z,72.47
2023-02-16T09:24:28.248Z,43.67
2023-02-16T09:27:01.694Z,47.92
2023-02-16T09:29:32.261Z,40.58
2023-02-16T09:32:03.005Z,38.83
2023-02-16T09:34:34.755Z,41.45
2023-02-16T09:37:04.008Z,45.58
2023-02-16T09:39:34.553Z,40.58
2023-02-16T09:42:16.880Z,41.95
2023-02-16T09:44:55.060Z,40.15
2023-02-16T09:47:33.328Z,35.78
2023-02-16T09:50:08.465Z,37.20
2023-02-16T09:52:40.229Z,37.47
2023-02-16T09:55:13.461Z,40.88
2023-02-16T09:57:44.640Z,32.17
2023-02-16T10:00:18.558Z,35.88
2023-02-16T10:02:51.568Z,38.22
2023-02-16T10:05:24.240Z,36.10
2023-02-16T10:08:02.155Z,35.55
2023-02-16T10:10:41.078Z,30.85
2023-02-16T10:13:38.676Z,37.65
2023-02-16T10:16:13.015Z,32.83
2023-02-16T10:18:43.608Z,37.05
2023-02-16T10:21:17.654Z,43.08
2023-02-16T10:23:48.429Z,53.35
2023-02-16T10:26:24.823Z,34.60
2023-02-16T10:28:55.366Z,32.30
2023-02-16T10:31:30.828Z,33.58
2023-02-16T10:38:06.720Z,36.75
2023-02-16T10:40:37.820Z,33.80
2023-02-16T10:43:14.025Z,35.53
2023-02-16T10:45:49.561Z,37.92
2023-02-16T10:48:21.666Z,35.60
2023-02-16T10:50:54.120Z,41.13
2023-02-16T10:53:23.368Z,34.50
2023-02-16T10:55:51.618Z,34.08
2023-02-16T10:58:24.225Z,36.15
2023-02-16T11:00:58.754Z,37.83
2023-02-16T11:03:35.970Z,47.53
2023-02-16T11:06:14.510Z,36.65
2023-02-16T11:08:49.675Z,37.47
2023-02-16T11:11:22.734Z,34.40
2023-02-16T11:14:00.012Z,31.10
2023-02-16T11:16:28.737Z,35.95
2023-02-16T11:18:58.513Z,33.13
2023-02-16T11:21:42.291Z,35.42
2023-02-16T11:24:12.115Z,35.10
2023-02-16T11:26:40.527Z,35.03
2023-02-16T11:29:19.489Z,39.05
2023-02-16T11:31:48.284Z,31.40
2023-02-16T11:34:24.575Z,34.85
2023-02-16T11:36:53.205Z,36.15
2023-02-16T11:39:22.780Z,38.10
2023-02-16T11:41:52.850Z,34.38
2023-02-16T11:44:26.939Z,37.88
2023-02-16T11:46:56.428Z,37.33
2023-02-16T11:49:31.467Z,37.88
2023-02-16T11:52:00.225Z,38.08
2023-02-16T11:54:28.613Z,36.97
2023-02-16T11:57:04.335Z,39.67
2023-02-16T11:59:36.458Z,39.95
2023-02-16T12:02:19.515Z,36.13
2023-02-16T12:05:07.448Z,36.42
2023-02-16T12:07:41.955Z,40.05
2023-02-16T12:10:11.510Z,38.72
2023-02-16T12:12:43.146Z,38.90
2023-02-16T12:15:21.055Z,40.53
2023-02-16T12:18:06.656Z,38.45
2023-02-16T12:20:43.291Z,39.95
2023-02-16T12:23:20.408Z,38.88
2023-02-16T12:25:52.404Z,38.58
2023-02-16T12:28:25.206Z,43.40
2023-02-16T12:30:59.832Z,41.08
2023-02-16T12:33:31.417Z,38.20
2023-02-16T12:36:22.941Z,46.42
2023-02-16T12:38:56.708Z,42.90
2023-02-16T12:41:30.340Z,41.70
2023-02-16T12:44:01.941Z,45.28
2023-02-16T12:46:33.953Z,39.80
2023-02-16T12:49:04.288Z,41.83
2023-02-16T12:51:36.456Z,39.47
2023-02-16T12:54:10.231Z,40.63
2023-02-16T12:56:40.955Z,39.33
2023-02-16T12:59:18.047Z,39.03
2023-02-16T13:01:48.777Z,37.90
2023-02-16T13:04:20.205Z,43.83
2023-02-16T13:06:52.611Z,38.75
2023-02-16T13:09:26.251Z,43.83
2023-02-16T13:11:56.885Z,41.33
2023-02-16T13:14:27.773Z,42.20
2023-02-16T13:16:59.066Z,39.97
2023-02-16T13:19:27.506Z,59.70
2023-02-16T13:22:06.529Z,40.38
2023-02-16T13:24:40.147Z,45.13
2023-02-16T13:27:20.088Z,41.00
2023-02-16T13:29:53.458Z,43.35
2023-02-16T13:32:40.684Z,44.25
2023-02-16T13:35:20.703Z,42.72
2023-02-16T13:37:57.440Z,42.55
2023-02-16T13:40:50.277Z,45.08
2023-02-16T13:43:23.872Z,46.03
2023-02-16T13:45:54.473Z,49.30
2023-02-16T13:48:25.252Z,43.40
2023-02-16T13:50:59.416Z,43.95
2023-02-16T13:53:28.193Z,46.70
2023-02-16T13:56:11.390Z,44.78
2023-02-16T13:58:40.709Z,44.15
2023-02-16T14:01:27.926Z,47.08
2023-02-16T14:03:56.270Z,44.58
2023-02-16T14:06:33.469Z,47.47
2023-02-16T14:09:21.194Z,45.83
2023-02-16T14:12:02.990Z,50.20
2023-02-16T14:14:32.352Z,43.67
2023-02-16T14:17:15.553Z,43.88
2023-02-16T14:19:51.152Z,45.28
2023-02-16T14:22:23.047Z,44.05
2023-02-16T14:24:55.489Z,47.58
2023-02-16T14:27:44.434Z,49.22
2023-02-16T14:30:26.620Z,44.58
2023-02-16T14:32:57.497Z,41.35
2023-02-16T14:35:28.584Z,48.25
2023-02-16T14:37:59.978Z,51.58
2023-02-16T14:40:42.904Z,47.58
2023-02-16T14:43:19.325Z,48.22
2023-02-16T14:45:54.916Z,90.88
2023-02-16T14:48:30.632Z,47.45
2023-02-16T14:51:10.611Z,45.22
2023-02-16T14:53:53.891Z,42.53
2023-02-16T14:56:36.832Z,48.50
2023-02-16T14:59:08.416Z,43.97
2023-02-16T15:01:41.152Z,48.38
2023-02-16T15:04:11.252Z,46.95
2023-02-16T15:06:41.395Z,43.90
2023-02-16T15:09:16.193Z,40.47
2023-02-16T15:12:08.192Z,43.85
2023-02-16T15:14:38.215Z,45.05
2023-02-16T15:17:08.068Z,85.25
2023-02-16T15:19:36.806Z,52.80
2023-02-16T15:22:19.370Z,44.58
2023-02-16T15:28:21.917Z,41.72
2023-02-16T15:30:52.035Z,43.53
2023-02-16T15:33:27.985Z,44.35
2023-02-16T15:35:59.136Z,44.75
2023-02-16T15:38:31.581Z,46.83
2023-02-16T15:41:01.137Z,44.83
2023-02-16T15:43:33.755Z,43.03
2023-02-16T15:46:03.802Z,38.88
2023-02-16T15:48:33.554Z,45.33
2023-02-16T15:51:03.549Z,42.53
2023-02-16T15:53:35.238Z,49.10
2023-02-16T15:56:04.489Z,46.90
2023-02-16T15:58:34.750Z,42.17
2023-02-16T16:01:03.769Z,52.78
2023-02-16T16:03:32.838Z,44.08
2023-02-16T16:06:04.766Z,50.90
2023-02-16T16:08:33.674Z,44.47
2023-02-16T16:11:02.434Z,43.97
2023-02-16T16:13:32.147Z,39.83
2023-02-16T16:16:04.703Z,42.15
2023-02-16T16:18:46.106Z,38.20
2023-02-16T16:21:19.910Z,45.38
2023-02-16T16:23:56.488Z,45.72
2023-02-16T16:26:25.914Z,44.58
2023-02-16T16:28:54.665Z,38.60
2023-02-16T16:31:35.141Z,39.33
2023-02-16T16:34:04.643Z,43.03
2023-02-16T16:36:33.954Z,45.80
2023-02-16T16:39:20.936Z,42.92
2023-02-16T16:42:08.046Z,44.72
2023-02-16T16:44:37.635Z,37.08
2023-02-16T16:47:15.884Z,42.03
2023-02-16T16:49:50.263Z,44.78
